createdAt,value
2018-11-21T00:00:48.855Z,25.23
2018-11-21T00:03:17.741Z,24.87
2018-11-21T00:05:46.578Z,26.57
2018-11-21T00:08:15.629Z,23.10
2018-11-21T00:10:44.738Z,28.30
2018-11-21T00:13:13.575Z,23.17
2018-11-21T00:15:43.018Z,23.03
2018-11-21T00:18:12.117Z,25.37
2018-11-21T00:20:40.886Z,25.17
2018-11-21T00:23:10.103Z,24.23
2018-11-21T00:25:39.411Z,24.97
2018-11-21T00:28:08.153Z,24.60
2018-11-21T00:30:37.587Z,23.60
2018-11-21T00:33:06.113Z,24.37
2018-11-21T00:35:35.682Z,23.17
2018-11-21T00:38:04.887Z,24.47
2018-11-21T00:40:33.127Z,23.37
2018-11-21T00:43:02.392Z,26.03
2018-11-21T00:45:32.094Z,24.30
2018-11-21T00:48:01.382Z,23.23
2018-11-21T00:50:29.891Z,24.70
2018-11-21T00:52:58.848Z,27.47
2018-11-21T00:55:27.376Z,27.17
2018-11-21T00:57:56.521Z,25.30
2018-11-21T01:00:25.418Z,25.73
2018-11-21T01:02:54.331Z,24.73
2018-11-21T01:05:23.481Z,23.83
2018-11-21T01:07:52.934Z,24.87
2018-11-21T01:10:21.487Z,24.93
2018-11-21T01:12:51.699Z,24.90
2018-11-21T01:15:20.503Z,22.50
2018-11-21T01:17:50.115Z,22.60
2018-11-21T01:20:18.623Z,25.40
2018-11-21T01:22:48.210Z,25.43
2018-11-21T01:25:17.437Z,24.80
2018-11-21T01:27:46.394Z,26.70
2018-11-21T01:30:14.611Z,25.60
2018-11-21T01:32:51.837Z,25.37
2018-11-21T01:35:21.607Z,24.83
2018-11-21T01:37:50.673Z,25.67
2018-11-21T01:40:20.091Z,26.00
2018-11-21T01:42:48.584Z,26.17
2018-11-21T01:45:30.726Z,25.17
2018-11-21T01:47:58.995Z,27.37
2018-11-21T01:50:28.256Z,24.53
2018-11-21T01:52:57.071Z,25.23
2018-11-21T01:55:26.394Z,25.37
2018-11-21T01:57:54.629Z,27.23
2018-11-21T02:00:23.265Z,26.77
2018-11-21T02:02:53.361Z,25.77
2018-11-21T02:05:21.664Z,22.63
2018-11-21T02:07:50.829Z,27.70
2018-11-21T02:10:19.638Z,26.73
2018-11-21T02:12:47.875Z,24.47
2018-11-21T02:15:16.385Z,25.93
2018-11-21T02:17:45.759Z,26.17
2018-11-21T02:20:14.727Z,26.17
2018-11-21T02:22:44.088Z,26.37
2018-11-21T02:25:13.101Z,26.77
2018-11-21T02:27:41.729Z,28.10
2018-11-21T02:30:10.560Z,24.83
2018-11-21T02:32:40.276Z,24.93
2018-11-21T02:35:09.560Z,25.73
2018-11-21T02:37:38.319Z,25.70
2018-11-21T02:40:07.629Z,26.57
2018-11-21T02:42:36.779Z,32.17
2018-11-21T02:45:05.673Z,26.93
2018-11-21T02:47:34.259Z,25.40
2018-11-21T02:50:04.060Z,26.53
2018-11-21T02:52:32.728Z,27.77
2018-11-21T02:55:07.958Z,26.90
2018-11-21T02:57:37.091Z,25.47
2018-11-21T03:00:18.234Z,27.03
2018-11-21T03:02:47.060Z,26.90
2018-11-21T03:05:16.940Z,29.63
2018-11-21T03:07:55.634Z,26.93
2018-11-21T03:10:25.095Z,26.80
2018-11-21T03:12:54.464Z,27.83
2018-11-21T03:15:23.949Z,27.23
2018-11-21T03:17:54.547Z,29.33
2018-11-21T03:20:22.256Z,30.73
2018-11-21T03:22:51.575Z,30.57
2018-11-21T03:25:20.078Z,27.53
2018-11-21T03:27:48.354Z,27.07
2018-11-21T03:30:17.558Z,24.50
2018-11-21T03:32:46.636Z,27.20
2018-11-21T03:35:15.394Z,28.90
2018-11-21T03:37:44.901Z,26.93
2018-11-21T03:40:20.657Z,25.87
2018-11-21T03:42:49.786Z,25.57
2018-11-21T03:45:20.934Z,27.50
2018-11-21T03:47:49.168Z,28.17
2018-11-21T03:50:18.584Z,26.73
2018-11-21T03:52:47.127Z,26.20
2018-11-21T03:55:16.611Z,25.53
2018-11-21T03:57:44.842Z,25.80
2018-11-21T04:00:14.048Z,27.60
2018-11-21T04:02:42.930Z,28.87
2018-11-21T04:05:11.980Z,27.17
2018-11-21T04:07:41.010Z,28.03
2018-11-21T04:10:12.176Z,27.23
2018-11-21T04:12:41.730Z,27.33
2018-11-21T04:15:12.667Z,27.37
2018-11-21T04:17:42.852Z,28.53
2018-11-21T04:20:12.121Z,26.93
2018-11-21T04:22:41.424Z,28.53
2018-11-21T04:25:11.934Z,29.27
2018-11-21T04:27:41.367Z,28.47
2018-11-21T04:30:11.262Z,25.43
2018-11-21T04:32:41.365Z,27.27
2018-11-21T04:35:10.541Z,30.17
2018-11-21T04:37:39.350Z,26.03
2018-11-21T04:40:08.332Z,31.27
2018-11-21T04:42:38.112Z,26.97
2018-11-21T04:45:08.661Z,29.07
2018-11-21T04:47:37.255Z,31.27
2018-11-21T04:50:07.177Z,27.67
2018-11-21T04:52:36.977Z,27.97
2018-11-21T04:55:07.059Z,28.00
2018-11-21T04:57:35.598Z,29.43
2018-11-21T05:00:04.846Z,29.73
2018-11-21T05:02:33.448Z,32.77
2018-11-21T05:05:03.151Z,30.63
2018-11-21T05:07:32.937Z,27.70
2018-11-21T05:10:02.027Z,28.27
2018-11-21T05:12:30.643Z,28.43
2018-11-21T05:15:00.268Z,26.23
2018-11-21T05:17:29.648Z,27.23
2018-11-21T05:19:57.653Z,27.03
2018-11-21T05:22:26.990Z,30.90
2018-11-21T05:24:56.191Z,30.47
2018-11-21T05:27:24.989Z,28.47
2018-11-21T05:29:54.690Z,29.83
2018-11-21T05:32:24.123Z,29.93
2018-11-21T05:34:53.014Z,29.27
2018-11-21T05:37:22.155Z,27.30
2018-11-21T05:39:51.001Z,24.43
2018-11-21T05:42:27.172Z,31.77
2018-11-21T05:44:56.351Z,27.60
2018-11-21T05:47:24.963Z,26.50
2018-11-21T05:49:54.828Z,27.40
2018-11-21T05:52:24.385Z,30.87
2018-11-21T05:54:54.053Z,29.27
2018-11-21T05:57:22.574Z,27.90
2018-11-21T05:59:52.868Z,28.33
2018-11-21T06:02:22.461Z,29.10
2018-11-21T06:04:51.120Z,32.20
2018-11-21T06:07:21.340Z,27.43
2018-11-21T06:09:50.340Z,30.43
2018-11-21T06:12:19.158Z,28.73
2018-11-21T06:14:48.847Z,29.03
2018-11-21T06:17:19.254Z,26.77
2018-11-21T06:19:47.721Z,28.27
2018-11-21T06:22:16.880Z,31.23
2018-11-21T06:24:46.151Z,29.93
2018-11-21T06:27:14.944Z,29.53
2018-11-21T06:29:43.793Z,30.70
2018-11-21T06:32:14.763Z,28.27
2018-11-21T06:34:43.875Z,30.77
2018-11-21T06:37:13.187Z,29.40
2018-11-21T06:39:42.703Z,28.53
2018-11-21T06:42:12.345Z,30.77
2018-11-21T06:44:42.281Z,28.10
2018-11-21T06:47:11.730Z,29.90
2018-11-21T06:49:40.521Z,27.07
2018-11-21T06:52:10.603Z,28.20
2018-11-21T06:54:39.150Z,32.30
2018-11-21T06:57:08.064Z,27.93
2018-11-21T06:59:38.218Z,30.53
2018-11-21T07:02:07.297Z,27.73
2018-11-21T07:04:36.060Z,32.83
2018-11-21T07:07:07.563Z,30.10
2018-11-21T07:09:37.701Z,32.53
2018-11-21T07:12:07.290Z,30.70
2018-11-21T07:14:36.882Z,29.90
2018-11-21T07:17:05.482Z,29.37
2018-11-21T07:19:34.306Z,31.63
2018-11-21T07:22:04.765Z,28.83
2018-11-21T07:24:34.492Z,34.50
2018-11-21T07:27:03.054Z,26.77
2018-11-21T07:29:34.606Z,28.27
2018-11-21T07:32:01.246Z,29.30
2018-11-21T07:34:30.311Z,32.20
2018-11-21T07:36:59.985Z,30.80
2018-11-21T07:39:29.680Z,27.47
2018-11-21T07:41:58.658Z,29.33
2018-11-21T07:44:28.015Z,29.43
2018-11-21T07:47:06.944Z,28.80
2018-11-21T07:49:36.643Z,29.80
2018-11-21T07:52:06.358Z,30.93
2018-11-21T07:54:35.239Z,30.80
2018-11-21T07:57:43.196Z,32.13
2018-11-21T08:00:57.777Z,29.33
2018-11-21T08:03:27.974Z,28.20
2018-11-21T08:06:17.952Z,30.47
2018-11-21T08:08:54.378Z,37.07
2018-11-21T08:11:42.908Z,37.77
2018-11-21T08:14:39.266Z,36.27
2018-11-21T08:17:20.816Z,31.97
2018-11-21T08:20:08.231Z,33.67
2018-11-21T08:22:58.522Z,35.23
2018-11-21T08:25:49.773Z,31.80
2018-11-21T08:28:26.319Z,31.03
2018-11-21T08:30:55.109Z,37.20
2018-11-21T08:33:23.645Z,30.67
2018-11-21T08:35:52.543Z,29.47
2018-11-21T08:38:21.030Z,29.17
2018-11-21T08:40:50.273Z,33.57
2018-11-21T08:43:19.245Z,34.17
2018-11-21T08:45:48.623Z,32.23
2018-11-21T08:48:18.854Z,33.30
2018-11-21T08:50:48.284Z,30.70
2018-11-21T08:53:17.984Z,35.33
2018-11-21T08:55:47.616Z,31.43
2018-11-21T08:58:16.474Z,31.27
2018-11-21T09:00:45.595Z,28.53
2018-11-21T09:03:14.461Z,28.93
2018-11-21T09:05:43.517Z,31.07
2018-11-21T09:08:13.217Z,30.93
2018-11-21T09:10:42.526Z,34.47
2018-11-21T09:13:11.604Z,32.47
2018-11-21T09:15:40.042Z,36.67
2018-11-21T09:18:08.609Z,35.30
2018-11-21T09:20:38.079Z,34.47
2018-11-21T09:23:06.729Z,33.07
2018-11-21T09:25:35.262Z,36.73
2018-11-21T09:28:03.863Z,32.50
2018-11-21T09:30:32.958Z,31.30
2018-11-21T09:33:02.423Z,36.93
2018-11-21T09:35:32.131Z,33.87
2018-11-21T09:38:00.920Z,33.47
2018-11-21T09:40:30.736Z,33.63
2018-11-21T09:42:59.305Z,33.77
2018-11-21T09:45:28.638Z,31.73
2018-11-21T09:47:57.445Z,34.73
2018-11-21T09:50:27.951Z,34.50
2018-11-21T09:52:56.919Z,29.90
2018-11-21T09:55:27.167Z,32.90
2018-11-21T09:57:55.783Z,31.87
2018-11-21T10:01:00.733Z,31.23
2018-11-21T10:03:31.035Z,35.17
2018-11-21T10:06:11.925Z,33.83
2018-11-21T10:08:46.056Z,34.90
2018-11-21T10:11:15.882Z,29.97
2018-11-21T10:13:46.111Z,30.40
2018-11-21T10:16:15.424Z,34.10
2018-11-21T10:18:46.175Z,31.80
2018-11-21T10:21:22.181Z,30.63
2018-11-21T10:23:51.324Z,36.33
2018-11-21T10:26:20.882Z,34.53
2018-11-21T10:28:50.483Z,35.47
2018-11-21T10:31:19.001Z,31.27
2018-11-21T10:33:47.821Z,32.00
2018-11-21T10:36:15.992Z,33.30
2018-11-21T10:38:44.858Z,31.43
2018-11-21T10:41:13.395Z,31.43
2018-11-21T10:43:42.323Z,34.27
2018-11-21T10:46:12.064Z,33.07
2018-11-21T10:48:40.577Z,32.63
2018-11-21T10:51:09.697Z,34.53
2018-11-21T10:53:39.145Z,34.93
2018-11-21T10:56:09.055Z,33.80
2018-11-21T10:58:38.690Z,35.00
2018-11-21T11:01:24.828Z,32.23
2018-11-21T11:03:59.765Z,31.87
2018-11-21T11:06:53.925Z,31.67
2018-11-21T11:09:47.737Z,30.63
2018-11-21T11:12:35.855Z,31.33
2018-11-21T11:15:22.566Z,27.70
2018-11-21T11:18:09.104Z,28.80
2018-11-21T11:21:05.087Z,29.23
2018-11-21T11:23:54.945Z,28.10
2018-11-21T11:26:57.814Z,24.67
2018-11-21T11:29:44.024Z,30.20
2018-11-21T11:32:34.884Z,27.17
2018-11-21T11:35:20.998Z,29.50
2018-11-21T11:38:11.350Z,26.50
2018-11-21T11:40:57.185Z,28.20
2018-11-21T11:43:46.304Z,26.77
2018-11-21T11:46:41.885Z,27.80
2018-11-21T11:49:30.991Z,28.93
2018-11-21T11:52:31.141Z,28.27
2018-11-21T11:55:21.730Z,27.90
2018-11-21T11:58:12.789Z,30.10
2018-11-21T12:00:57.356Z,23.43
2018-11-21T12:03:59.550Z,26.30
2018-11-21T12:07:02.057Z,27.67
2018-11-21T12:09:50.519Z,28.47
2018-11-21T12:12:41.061Z,27.33
2018-11-21T12:15:27.317Z,26.37
2018-11-21T12:18:19.854Z,28.40
2018-11-21T12:21:06.333Z,27.83
2018-11-21T12:23:51.341Z,29.00
2018-11-21T12:26:51.300Z,25.23
2018-11-21T12:29:37.687Z,27.97
2018-11-21T12:32:30.355Z,27.20
2018-11-21T12:35:24.084Z,26.37
2018-11-21T12:38:15.720Z,26.97
2018-11-21T12:41:18.533Z,26.13
2018-11-21T12:44:05.359Z,28.30
2018-11-21T12:46:51.788Z,26.47
2018-11-21T12:49:38.254Z,26.97
2018-11-21T12:52:25.783Z,26.60
2018-11-21T12:55:11.888Z,25.27
2018-11-21T12:57:58.292Z,25.13
2018-11-21T13:00:56.357Z,28.43
2018-11-21T13:03:44.434Z,27.57
2018-11-21T13:06:31.395Z,29.97
2018-11-21T13:09:12.366Z,26.77
2018-11-21T13:11:58.856Z,30.27
2018-11-21T13:14:41.723Z,27.97
2018-11-21T13:17:29.615Z,28.53
2018-11-21T13:20:19.924Z,27.47
2018-11-21T13:23:05.979Z,29.83
2018-11-21T13:26:08.439Z,27.07
2018-11-21T13:28:57.554Z,31.50
2018-11-21T13:31:44.188Z,26.73
2018-11-21T13:34:30.783Z,29.83
2018-11-21T13:37:17.458Z,29.03
2018-11-21T13:40:16.911Z,28.03
2018-11-21T13:43:13.387Z,29.77
2018-11-21T13:46:01.418Z,32.07
2018-11-21T13:48:56.301Z,28.90
2018-11-21T13:51:55.970Z,31.07
2018-11-21T13:54:51.041Z,32.47
2018-11-21T13:57:21.105Z,25.90
2018-11-21T14:00:00.395Z,27.43
2018-11-21T14:02:31.737Z,28.87
2018-11-21T14:05:03.190Z,26.00
2018-11-21T14:07:39.456Z,24.70
2018-11-21T14:10:10.752Z,29.03
2018-11-21T14:12:41.661Z,27.10
2018-11-21T14:15:25.226Z,26.57
2018-11-21T14:18:05.177Z,25.90
2018-11-21T14:20:36.413Z,27.60
2018-11-21T14:23:05.714Z,28.17
2018-11-21T14:25:34.837Z,28.77
2018-11-21T14:28:04.853Z,25.83
2018-11-21T14:30:37.682Z,26.50
2018-11-21T14:33:09.436Z,27.97
2018-11-21T14:35:39.490Z,27.57
2018-11-21T14:38:10.139Z,26.87
2018-11-21T14:40:38.994Z,27.23
2018-11-21T14:43:07.702Z,26.90
2018-11-21T14:45:37.020Z,28.10
2018-11-21T14:48:06.619Z,26.57
2018-11-21T14:50:39.177Z,27.97
2018-11-21T14:53:04.923Z,25.80
2018-11-21T14:55:38.942Z,27.83
2018-11-21T14:58:14.655Z,27.47
2018-11-21T15:00:43.223Z,25.97
2018-11-21T15:03:18.360Z,28.50
2018-11-21T15:05:45.479Z,27.10
2018-11-21T15:08:14.955Z,30.60
2018-11-21T15:10:43.863Z,29.13
2018-11-21T15:13:14.099Z,28.70
2018-11-21T15:15:42.399Z,28.43
2018-11-21T15:18:10.754Z,29.03
2018-11-21T15:20:39.747Z,28.63
2018-11-21T15:23:09.339Z,27.67
2018-11-21T15:25:40.049Z,30.13
2018-11-21T15:28:08.682Z,28.90
2018-11-21T15:30:38.490Z,27.87
2018-11-21T15:33:06.858Z,27.13
2018-11-21T15:35:36.355Z,27.73
2018-11-21T15:38:05.194Z,26.67
2018-11-21T15:40:34.514Z,26.97
2018-11-21T15:43:03.263Z,27.80
2018-11-21T15:45:32.861Z,28.13
2018-11-21T15:48:02.990Z,27.63
2018-11-21T15:50:32.026Z,27.60
2018-11-21T15:53:11.009Z,27.43
2018-11-21T15:55:39.845Z,27.63
2018-11-21T15:58:09.254Z,28.70
2018-11-21T16:00:39.178Z,27.17
2018-11-21T16:03:10.308Z,29.63
2018-11-21T16:05:38.155Z,28.67
2018-11-21T16:08:07.083Z,25.90
2018-11-21T16:10:43.307Z,25.00
2018-11-21T16:13:12.376Z,26.00
2018-11-21T16:15:45.496Z,25.20
2018-11-21T16:18:14.076Z,28.17
2018-11-21T16:20:42.762Z,25.00
2018-11-21T16:23:12.083Z,27.77
2018-11-21T16:25:41.479Z,26.73
2018-11-21T16:28:10.095Z,23.00
2018-11-21T16:30:57.793Z,25.57
2018-11-21T16:33:26.075Z,25.53
2018-11-21T16:35:55.252Z,23.47
2018-11-21T16:38:36.973Z,25.53
2018-11-21T16:41:06.206Z,21.80
2018-11-21T16:43:48.158Z,24.47
2018-11-21T16:46:17.155Z,24.93
2018-11-21T16:48:46.801Z,25.50
2018-11-21T16:51:15.421Z,24.73
2018-11-21T16:53:44.321Z,25.53
2018-11-21T16:56:14.087Z,28.13
2018-11-21T16:58:43.081Z,26.37
2018-11-21T17:01:12.331Z,25.77
2018-11-21T17:03:40.938Z,24.27
2018-11-21T17:06:09.566Z,28.17
2018-11-21T17:08:39.425Z,23.60
2018-11-21T17:11:08.246Z,25.43
2018-11-21T17:13:36.809Z,23.83
2018-11-21T17:16:05.658Z,24.43
2018-11-21T17:18:35.530Z,28.30
2018-11-21T17:21:05.081Z,26.70
2018-11-21T17:23:35.225Z,29.60
2018-11-21T17:26:04.142Z,27.33
2018-11-21T17:28:32.685Z,28.13
2018-11-21T17:31:01.226Z,27.77
2018-11-21T17:33:31.388Z,30.57
2018-11-21T17:36:00.574Z,28.53
2018-11-21T17:38:33.710Z,32.77
2018-11-21T17:40:58.385Z,28.17
2018-11-21T17:43:31.482Z,27.70
2018-11-21T17:46:04.084Z,27.67
2018-11-21T17:48:29.562Z,30.43
2018-11-21T17:50:58.106Z,29.23
2018-11-21T17:53:26.974Z,29.80
2018-11-21T17:55:55.845Z,36.77
2018-11-21T17:58:24.645Z,30.43
2018-11-21T18:00:53.229Z,29.90
2018-11-21T18:03:21.830Z,31.27
2018-11-21T18:05:50.408Z,30.07
2018-11-21T18:08:19.161Z,30.37
2018-11-21T18:10:47.489Z,30.67
2018-11-21T18:13:16.775Z,29.27
2018-11-21T18:15:46.155Z,31.50
2018-11-21T18:18:15.003Z,28.73
2018-11-21T18:20:48.051Z,28.67
2018-11-21T18:23:19.056Z,27.93
2018-11-21T18:25:48.808Z,28.40
2018-11-21T18:28:17.749Z,25.37
2018-11-21T18:30:46.339Z,26.30
2018-11-21T18:33:15.676Z,28.90
2018-11-21T18:35:44.656Z,29.03
2018-11-21T18:38:13.700Z,25.23
2018-11-21T18:40:42.761Z,24.90
2018-11-21T18:43:13.582Z,26.13
2018-11-21T18:45:43.798Z,26.27
2018-11-21T18:48:12.500Z,25.07
2018-11-21T18:50:41.414Z,22.67
2018-11-21T18:53:11.344Z,23.57
2018-11-21T18:55:42.355Z,24.50
2018-11-21T18:58:37.523Z,23.40
2018-11-21T19:01:10.336Z,25.93
2018-11-21T19:03:38.871Z,24.30
2018-11-21T19:06:07.782Z,22.37
2018-11-21T19:08:36.611Z,24.63
2018-11-21T19:11:06.391Z,25.27
2018-11-21T19:13:35.052Z,25.03
2018-11-21T19:16:04.009Z,24.77
2018-11-21T19:18:32.877Z,23.93
2018-11-21T19:21:01.732Z,22.87
2018-11-21T19:23:30.637Z,24.27
2018-11-21T19:26:09.782Z,22.63
2018-11-21T19:28:38.159Z,23.27
2018-11-21T19:31:06.671Z,22.43
2018-11-21T19:33:35.814Z,24.00
2018-11-21T19:36:05.348Z,22.83
2018-11-21T19:38:34.014Z,20.77
2018-11-21T19:41:03.388Z,22.53
2018-11-21T19:43:32.850Z,19.17
2018-11-21T19:46:01.495Z,20.43
2018-11-21T19:48:30.811Z,19.70
2018-11-21T19:50:59.699Z,21.10
2018-11-21T19:53:29.173Z,20.33
2018-11-21T19:55:58.627Z,21.87
2018-11-21T19:58:27.815Z,20.07
2018-11-21T20:00:58.276Z,20.30
2018-11-21T20:03:27.026Z,21.90
2018-11-21T20:06:10.888Z,18.67
2018-11-21T20:08:54.458Z,18.70
2018-11-21T20:11:29.572Z,19.20
2018-11-21T20:13:59.414Z,21.93
2018-11-21T20:16:36.513Z,19.70
2018-11-21T20:19:06.305Z,20.70
2018-11-21T20:21:34.783Z,19.20
2018-11-21T20:24:04.120Z,18.73
2018-11-21T20:26:36.787Z,20.20
2018-11-21T20:29:05.396Z,17.83
2018-11-21T20:31:43.744Z,21.67
2018-11-21T20:34:12.523Z,19.77
2018-11-21T20:36:42.110Z,19.53
2018-11-21T20:39:12.314Z,20.90
2018-11-21T20:41:43.024Z,18.23
2018-11-21T20:44:14.201Z,20.63
2018-11-21T20:46:55.048Z,22.23
2018-11-21T20:49:31.408Z,19.03
2018-11-21T20:51:59.739Z,19.27
2018-11-21T20:54:28.371Z,20.03
2018-11-21T20:56:57.791Z,22.20
2018-11-21T20:59:28.564Z,20.37
2018-11-21T21:01:57.998Z,20.13
2018-11-21T21:04:27.414Z,20.70
2018-11-21T21:06:56.123Z,19.23
2018-11-21T21:09:25.292Z,19.10
2018-11-21T21:11:54.688Z,20.03
2018-11-21T21:14:23.516Z,19.13
2018-11-21T21:16:58.164Z,19.73
2018-11-21T21:19:27.553Z,19.03
2018-11-21T21:21:57.328Z,19.50
2018-11-21T21:24:25.898Z,20.93
2018-11-21T21:26:55.555Z,18.13
2018-11-21T21:29:43.372Z,19.23
2018-11-21T21:32:22.699Z,19.90
2018-11-21T21:34:52.547Z,19.97
2018-11-21T21:37:26.262Z,19.00
2018-11-21T21:39:56.338Z,19.07
2018-11-21T21:42:27.688Z,18.67
2018-11-21T21:44:56.692Z,20.90
2018-11-21T21:47:32.830Z,20.67
2018-11-21T21:50:03.654Z,19.63
2018-11-21T21:52:33.991Z,20.87
2018-11-21T21:55:03.092Z,20.50
2018-11-21T21:57:34.840Z,20.73
2018-11-21T22:00:03.632Z,21.03
2018-11-21T22:02:32.250Z,20.57
2018-11-21T22:05:01.088Z,21.53
2018-11-21T22:07:29.958Z,23.03
2018-11-21T22:09:59.258Z,23.00
2018-11-21T22:12:28.432Z,22.03
2018-11-21T22:14:58.142Z,20.63
2018-11-21T22:17:27.810Z,20.73
2018-11-21T22:19:57.331Z,21.47
2018-11-21T22:22:26.924Z,20.00
2018-11-21T22:24:55.436Z,18.37
2018-11-21T22:27:23.981Z,19.90
2018-11-21T22:29:52.520Z,20.17
2018-11-21T22:32:22.201Z,22.23
2018-11-21T22:34:57.862Z,19.27
2018-11-21T22:37:26.341Z,19.53
2018-11-21T22:39:55.218Z,20.37
2018-11-21T22:42:24.262Z,19.83
2018-11-21T22:44:53.333Z,19.57
2018-11-21T22:47:22.218Z,18.53
2018-11-21T22:49:51.237Z,19.23
2018-11-21T22:52:20.086Z,20.40
2018-11-21T22:54:48.662Z,18.23
2018-11-21T22:57:17.165Z,19.03
2018-11-21T22:59:46.824Z,16.87
2018-11-21T23:02:22.339Z,17.57
2018-11-21T23:04:51.229Z,16.67
2018-11-21T23:07:20.166Z,17.10
2018-11-21T23:09:49.576Z,18.40
2018-11-21T23:12:18.399Z,16.70
2018-11-21T23:15:00.661Z,19.30
2018-11-21T23:17:30.127Z,17.13
2018-11-21T23:19:59.019Z,17.83
2018-11-21T23:22:32.483Z,17.13
2018-11-21T23:24:57.351Z,19.57
2018-11-21T23:27:26.198Z,18.27
2018-11-21T23:29:55.539Z,16.63
2018-11-21T23:32:24.898Z,18.47
2018-11-21T23:35:03.159Z,19.03
2018-11-21T23:37:32.584Z,19.80
2018-11-21T23:40:01.173Z,19.87
2018-11-21T23:42:30.570Z,17.77
2018-11-21T23:45:00.498Z,19.23
2018-11-21T23:47:29.437Z,18.23
2018-11-21T23:49:58.830Z,16.50
2018-11-21T23:52:29.382Z,18.63
2018-11-21T23:54:57.967Z,18.63
2018-11-21T23:57:26.743Z,17.30
2018-11-21T23:59:55.646Z,18.23
